Time;durP1;ratioP1;P1;durP2;ratioP2;P2;SDS_P1;SDS_P2;PMS_P1;PMS_P2;Temp;Humidity;BMP_temperature;BMP_pressure;BME280_temperature;BME280_humidity;BME280_pressure;Samples;Min_cycle;Max_cycle;Signal;HPM_P1;HPM_P2
2022/04/08 00:01:36;;;;;;;8.93;1.73;;;;;;;;;;5008886;28;20438;-89
2022/04/08 00:04:02;;;;;;;9.15;2.00;;;;;;;;;;5007040;28;20431;-86
2022/04/08 00:06:28;;;;;;;9.48;1.95;;;;;;;;;;5005789;28;20442;-87
2022/04/08 00:08:55;;;;;;;12.02;2.33;;;;;;;;;;5007855;28;20430;-87
2022/04/08 00:11:22;;;;;;;7.60;1.90;;;;;;;;;;5006390;28;20978;-87
2022/04/08 00:13:51;;;;;;;5.45;1.90;;;;;;;;;;5007303;28;20869;-87
2022/04/08 00:16:17;;;;;;;10.05;2.20;;;;;;;;;;5007608;28;20436;-87
2022/04/08 00:18:45;;;;;;;8.88;2.10;;;;;;;;;;5005143;28;20434;-87
2022/04/08 00:21:11;;;;;;;7.15;2.10;;;;;;;;;;5007848;28;20430;-88
2022/04/08 00:23:37;;;;;;;11.07;2.42;;;;;;;;;;5007094;28;20916;-87
2022/04/08 00:26:04;;;;;;;9.20;2.40;;;;;;;;;;5010009;28;20481;-87
2022/04/08 00:28:32;;;;;;;10.20;2.20;;;;;;;;;;5004312;28;20480;-88
2022/04/08 00:30:58;;;;;;;12.05;2.20;;;;;;;;;;5008583;28;20434;-87
2022/04/08 00:33:24;;;;;;;7.85;2.45;;;;;;;;;;5007687;28;20425;-87
2022/04/08 00:35:50;;;;;;;9.27;2.53;;;;;;;;;;5005563;28;21207;-88
2022/04/08 00:38:16;;;;;;;7.07;2.20;;;;;;;;;;5005784;28;20430;-88
2022/04/08 00:40:43;;;;;;;9.55;2.08;;;;;;;;;;5007448;28;20438;-87
2022/04/08 00:43:13;;;;;;;10.20;2.30;;;;;;;;;;5007438;28;20417;-87
2022/04/08 00:45:41;;;;;;;13.73;2.80;;;;;;;;;;5008264;28;20491;-88
2022/04/08 00:48:07;;;;;;;8.70;2.50;;;;;;;;;;5007037;28;20428;-87
2022/04/08 00:50:34;;;;;;;12.25;2.55;;;;;;;;;;5005487;28;22578;-87
2022/04/08 00:53:01;;;;;;;8.87;2.10;;;;;;;;;;5006854;28;20456;-88
2022/04/08 00:55:27;;;;;;;9.60;2.13;;;;;;;;;;5006330;28;20437;-87
2022/04/08 00:57:54;;;;;;;12.82;2.60;;;;;;;;;;5005450;28;20422;-90
2022/04/08 01:00:22;;;;;;;8.65;2.22;;;;;;;;;;5005611;28;20438;-88
2022/04/08 01:02:50;;;;;;;13.00;2.93;;;;;;;;;;5007699;28;20556;-88
2022/04/08 01:05:16;;;;;;;8.82;1.92;;;;;;;;;;5003720;28;20438;-87
2022/04/08 01:07:42;;;;;;;9.50;2.80;;;;;;;;;;5006306;28;20417;-87
2022/04/08 01:10:09;;;;;;;8.15;2.38;;;;;;;;;;5004294;28;20502;-88
2022/04/08 01:12:35;;;;;;;12.18;2.50;;;;;;;;;;5005683;28;20475;-87
2022/04/08 01:15:01;;;;;;;10.60;2.30;;;;;;;;;;5005931;28;20440;-88
2022/04/08 01:17:28;;;;;;;8.07;2.33;;;;;;;;;;5005153;28;20446;-88
2022/04/08 01:19:55;;;;;;;11.00;2.70;;;;;;;;;;5004685;28;20437;-88
2022/04/08 01:22:22;;;;;;;6.32;1.70;;;;;;;;;;5006429;28;20441;-87
2022/04/08 01:24:50;;;;;;;8.83;2.40;;;;;;;;;;5005019;28;21418;-88
2022/04/08 01:27:19;;;;;;;10.02;1.90;;;;;;;;;;5004280;28;20443;-87
2022/04/08 01:29:45;;;;;;;10.07;2.30;;;;;;;;;;5004181;28;20436;-87
2022/04/08 01:32:11;;;;;;;6.88;2.20;;;;;;;;;;5003819;28;20990;-87
2022/04/08 01:34:38;;;;;;;9.07;3.08;;;;;;;;;;5004174;28;20462;-88
2022/04/08 01:37:04;;;;;;;10.10;2.20;;;;;;;;;;5007407;28;20439;-87
2022/04/08 01:39:30;;;;;;;7.05;1.98;;;;;;;;;;5003028;28;20462;-87
2022/04/08 01:41:56;;;;;;;8.65;2.20;;;;;;;;;;5004827;28;20438;-88
2022/04/08 01:44:24;;;;;;;8.02;2.30;;;;;;;;;;5004303;28;20698;-87
2022/04/08 01:46:50;;;;;;;8.60;2.08;;;;;;;;;;5006022;28;20439;-88
2022/04/08 01:49:16;;;;;;;6.73;2.13;;;;;;;;;;5003203;28;21050;-86
2022/04/08 01:51:43;;;;;;;11.20;2.83;;;;;;;;;;5007130;28;20502;-88
2022/04/08 01:54:09;;;;;;;10.32;1.90;;;;;;;;;;5004365;28;20436;-88
2022/04/08 01:56:35;;;;;;;6.40;2.17;;;;;;;;;;5005679;28;20490;-87
2022/04/08 01:59:01;;;;;;;6.70;1.90;;;;;;;;;;5004395;28;20436;-88
2022/04/08 02:01:29;;;;;;;5.95;2.05;;;;;;;;;;5007442;28;20446;-88
2022/04/08 02:03:55;;;;;;;9.13;2.30;;;;;;;;;;5002695;28;20767;-88
2022/04/08 02:06:21;;;;;;;7.55;2.30;;;;;;;;;;5002482;28;20486;-88
2022/04/08 02:08:49;;;;;;;3.85;1.67;;;;;;;;;;5003643;28;20838;-88
2022/04/08 02:11:16;;;;;;;8.95;2.00;;;;;;;;;;5004722;28;20489;-87
2022/04/08 02:13:42;;;;;;;5.57;1.42;;;;;;;;;;5003392;28;20434;-87
2022/04/08 02:16:08;;;;;;;2.20;1.20;;;;;;;;;;5003393;28;20956;-87
2022/04/08 02:18:36;;;;;;;2.90;1.05;;;;;;;;;;5003759;28;20432;-88
2022/04/08 02:21:02;;;;;;;2.50;1.10;;;;;;;;;;5005760;28;20436;-87
2022/04/08 02:23:28;;;;;;;2.00;0.95;;;;;;;;;;5001864;28;20547;-87
2022/04/08 02:25:55;;;;;;;5.13;1.30;;;;;;;;;;5004542;28;20429;-87
2022/04/08 02:28:21;;;;;;;3.05;1.10;;;;;;;;;;5003933;28;20432;-88
2022/04/08 02:30:48;;;;;;;4.60;1.33;;;;;;;;;;5004770;28;21170;-88
2022/04/08 02:33:14;;;;;;;7.25;1.80;;;;;;;;;;5003624;28;20427;-88
2022/04/08 02:35:41;;;;;;;6.18;1.90;;;;;;;;;;5005619;28;20459;-88
2022/04/08 02:38:09;;;;;;;4.13;1.60;;;;;;;;;;5002829;28;20982;-88
2022/04/08 02:40:36;;;;;;;3.97;1.80;;;;;;;;;;5004237;28;20428;-87
2022/04/08 02:43:02;;;;;;;6.15;1.35;;;;;;;;;;5003177;28;20453;-87
2022/04/08 02:45:28;;;;;;;6.22;1.45;;;;;;;;;;5004214;28;20424;-87
2022/04/08 02:47:55;;;;;;;7.60;1.63;;;;;;;;;;5002771;28;20416;-87
2022/04/08 02:50:21;;;;;;;2.55;1.40;;;;;;;;;;5002590;28;20434;-88
2022/04/08 02:52:48;;;;;;;4.55;1.40;;;;;;;;;;5004623;28;20417;-87
2022/04/08 02:55:14;;;;;;;3.30;1.30;;;;;;;;;;5002624;28;20432;-87
2022/04/08 02:57:45;;;;;;;6.23;1.40;;;;;;;;;;5000332;28;20947;-87
2022/04/08 03:00:12;;;;;;;3.00;1.10;;;;;;;;;;5004952;28;20436;-86
2022/04/08 03:02:38;;;;;;;3.97;1.40;;;;;;;;;;5005560;28;20924;-87
2022/04/08 03:05:06;;;;;;;4.30;1.45;;;;;;;;;;5006319;28;20816;-87
2022/04/08 03:07:32;;;;;;;3.20;1.40;;;;;;;;;;5005685;28;20422;-87
2022/04/08 03:10:00;;;;;;;4.70;1.30;;;;;;;;;;5007359;28;20432;-87
2022/04/08 03:12:26;;;;;;;7.95;1.80;;;;;;;;;;5002127;28;20793;-86
2022/04/08 03:14:52;;;;;;;5.10;1.70;;;;;;;;;;5005176;28;20479;-87
2022/04/08 03:17:19;;;;;;;7.35;1.85;;;;;;;;;;5004904;28;20451;-87
2022/04/08 03:19:45;;;;;;;5.18;1.50;;;;;;;;;;5004983;28;20441;-87
2022/04/08 03:22:11;;;;;;;4.90;1.90;;;;;;;;;;5005067;28;20420;-87
2022/04/08 03:24:37;;;;;;;9.50;2.40;;;;;;;;;;5004243;28;20843;-87
2022/04/08 03:27:05;;;;;;;7.53;2.00;;;;;;;;;;5005539;28;20457;-86
2022/04/08 03:29:31;;;;;;;7.75;1.70;;;;;;;;;;5002505;28;20873;-87
2022/04/08 03:31:58;;;;;;;6.32;1.70;;;;;;;;;;5005540;28;20507;-87
2022/04/08 03:34:24;;;;;;;12.20;2.50;;;;;;;;;;5005788;28;20830;-87
2022/04/08 03:36:50;;;;;;;6.75;1.70;;;;;;;;;;5006219;28;20446;-87
2022/04/08 03:39:17;;;;;;;5.50;1.90;;;;;;;;;;5000475;28;20434;-87
2022/04/08 03:41:43;;;;;;;7.10;1.73;;;;;;;;;;5005922;28;20921;-87
2022/04/08 03:44:11;;;;;;;9.02;2.30;;;;;;;;;;5003149;28;20477;-86
2022/04/08 03:46:37;;;;;;;5.95;2.20;;;;;;;;;;5005698;28;20486;-87
2022/04/08 03:49:04;;;;;;;6.70;2.50;;;;;;;;;;5003839;28;20432;-88
2022/04/08 03:51:31;;;;;;;6.22;1.60;;;;;;;;;;5003756;28;21022;-87
2022/04/08 03:53:57;;;;;;;4.20;1.50;;;;;;;;;;5002022;28;20429;-87
2022/04/08 03:56:23;;;;;;;5.15;2.05;;;;;;;;;;5001542;28;20473;-87
2022/04/08 03:58:49;;;;;;;6.30;2.47;;;;;;;;;;5000804;28;20431;-88
2022/04/08 04:01:17;;;;;;;10.10;2.03;;;;;;;;;;5003693;28;20441;-87
2022/04/08 04:03:43;;;;;;;6.97;2.13;;;;;;;;;;5001895;28;20482;-87
2022/04/08 04:06:10;;;;;;;10.98;2.30;;;;;;;;;;5003792;28;20438;-87
2022/04/08 04:08:36;;;;;;;8.85;2.20;;;;;;;;;;5001336;28;20474;-87
2022/04/08 04:11:02;;;;;;;9.77;2.37;;;;;;;;;;5004761;28;20843;-87
2022/04/08 04:13:28;;;;;;;8.30;2.40;;;;;;;;;;5002787;28;20441;-88
2022/04/08 04:15:54;;;;;;;11.32;2.72;;;;;;;;;;5004762;28;20509;-85
2022/04/08 04:18:22;;;;;;;9.60;2.50;;;;;;;;;;5004962;28;20432;-87
2022/04/08 04:20:48;;;;;;;8.63;2.80;;;;;;;;;;5005270;28;20440;-87
2022/04/08 04:23:14;;;;;;;12.95;2.63;;;;;;;;;;5006065;28;20434;-87
2022/04/08 04:25:41;;;;;;;11.50;2.95;;;;;;;;;;5006164;28;20494;-87
2022/04/08 04:28:07;;;;;;;12.63;3.33;;;;;;;;;;5003416;28;20422;-86
2022/04/08 04:30:34;;;;;;;10.65;2.70;;;;;;;;;;5006255;28;20536;-87
2022/04/08 04:33:00;;;;;;;10.07;2.30;;;;;;;;;;4999704;28;21008;-87
2022/04/08 04:35:28;;;;;;;15.15;3.20;;;;;;;;;;5003556;28;20916;-87
2022/04/08 04:37:54;;;;;;;11.50;2.53;;;;;;;;;;5003879;28;20421;-87
2022/04/08 04:40:21;;;;;;;8.48;2.42;;;;;;;;;;5003767;28;20438;-87
2022/04/08 04:42:47;;;;;;;7.30;2.10;;;;;;;;;;5004582;28;20439;-87
2022/04/08 04:45:13;;;;;;;5.10;2.10;;;;;;;;;;5003982;28;20432;-87
2022/04/08 04:47:40;;;;;;;5.13;2.13;;;;;;;;;;5004606;28;20431;-87
2022/04/08 04:50:06;;;;;;;7.13;2.70;;;;;;;;;;5003112;28;20432;-87
2022/04/08 04:52:34;;;;;;;8.57;2.42;;;;;;;;;;5004895;28;20416;-87
2022/04/08 04:55:00;;;;;;;10.48;2.90;;;;;;;;;;5003309;28;20919;-86
2022/04/08 04:57:26;;;;;;;8.95;3.10;;;;;;;;;;4999631;28;20425;-87
2022/04/08 04:59:53;;;;;;;9.05;2.53;;;;;;;;;;5001550;28;20432;-87
2022/04/08 05:02:19;;;;;;;9.85;2.50;;;;;;;;;;5005218;28;20417;-87
2022/04/08 05:04:45;;;;;;;9.57;2.88;;;;;;;;;;5004378;28;20430;-86
2022/04/08 05:07:12;;;;;;;9.25;2.47;;;;;;;;;;5003390;28;20458;-87
2022/04/08 05:09:40;;;;;;;9.15;2.20;;;;;;;;;;5005284;28;20420;-85
2022/04/08 05:12:07;;;;;;;8.68;2.17;;;;;;;;;;5003142;28;20463;-88
2022/04/08 05:14:34;;;;;;;8.85;2.40;;;;;;;;;;5005272;28;20444;-87
2022/04/08 05:17:00;;;;;;;6.35;2.40;;;;;;;;;;5001728;28;20440;-88
2022/04/08 05:19:26;;;;;;;8.85;2.70;;;;;;;;;;5005368;28;20926;-87
2022/04/08 05:21:52;;;;;;;11.35;2.60;;;;;;;;;;5000538;28;20858;-87
2022/04/08 05:24:19;;;;;;;7.70;1.80;;;;;;;;;;5003069;28;20451;-87
2022/04/08 05:26:47;;;;;;;9.23;2.10;;;;;;;;;;5006025;28;20441;-87
2022/04/08 05:29:13;;;;;;;9.00;2.07;;;;;;;;;;5002489;28;20442;-86
2022/04/08 05:31:39;;;;;;;4.00;1.60;;;;;;;;;;5005682;28;20467;-86
2022/04/08 05:34:06;;;;;;;4.50;1.70;;;;;;;;;;5018882;23;20933;-80
2022/04/08 05:36:32;;;;;;;6.55;2.50;;;;;;;;;;5004824;28;20523;-80
2022/04/08 05:38:59;;;;;;;6.80;1.80;;;;;;;;;;4983605;28;20442;-79
2022/04/08 05:41:25;;;;;;;7.65;2.10;;;;;;;;;;4980950;28;20445;-80
2022/04/08 05:43:54;;;;;;;8.43;2.13;;;;;;;;;;4983112;28;20430;-81
2022/04/08 05:46:20;;;;;;;6.43;1.83;;;;;;;;;;4984106;28;20749;-79
2022/04/08 05:48:46;;;;;;;7.28;1.83;;;;;;;;;;4983599;28;20488;-80
2022/04/08 05:51:13;;;;;;;4.70;1.58;;;;;;;;;;4984245;28;20430;-80
2022/04/08 05:53:39;;;;;;;5.68;1.83;;;;;;;;;;4982487;28;20434;-80
2022/04/08 05:56:05;;;;;;;4.50;2.10;;;;;;;;;;4984322;28;20489;-81
2022/04/08 05:58:32;;;;;;;6.57;2.00;;;;;;;;;;4982059;28;20449;-80
2022/04/08 06:01:00;;;;;;;5.50;2.00;;;;;;;;;;4983815;28;20450;-80
2022/04/08 06:03:26;;;;;;;4.50;1.90;;;;;;;;;;4984146;28;21388;-79
2022/04/08 06:05:53;;;;;;;6.63;2.00;;;;;;;;;;4982855;28;20467;-80
2022/04/08 06:08:19;;;;;;;10.00;2.30;;;;;;;;;;4983596;28;20434;-80
2022/04/08 06:10:45;;;;;;;5.97;2.03;;;;;;;;;;4984544;28;20452;-80
2022/04/08 06:13:11;;;;;;;5.00;2.05;;;;;;;;;;4979425;28;20430;-80
2022/04/08 06:15:38;;;;;;;9.47;2.43;;;;;;;;;;4983855;28;20438;-80
2022/04/08 06:18:07;;;;;;;5.13;1.95;;;;;;;;;;4983998;28;20436;-79
2022/04/08 06:20:34;;;;;;;4.07;1.90;;;;;;;;;;4982691;28;20450;-80
2022/04/08 06:23:00;;;;;;;7.17;2.20;;;;;;;;;;4981857;28;20440;-79
2022/04/08 06:25:26;;;;;;;8.20;2.40;;;;;;;;;;4984400;28;20454;-80
2022/04/08 06:27:56;;;;;;;6.47;2.50;;;;;;;;;;4982853;28;20426;-80
2022/04/08 06:30:22;;;;;;;11.32;2.20;;;;;;;;;;4981890;28;20491;-80
2022/04/08 06:32:49;;;;;;;4.45;2.30;;;;;;;;;;4982726;28;20426;-81
2022/04/08 06:35:16;;;;;;;4.03;2.33;;;;;;;;;;4982588;28;20440;-81
2022/04/08 06:37:42;;;;;;;4.82;2.30;;;;;;;;;;4983063;28;20442;-81
2022/04/08 06:40:10;;;;;;;9.93;2.92;;;;;;;;;;4983886;28;20441;-81
2022/04/08 06:42:36;;;;;;;5.80;2.53;;;;;;;;;;4978601;28;20422;-81
2022/04/08 06:45:03;;;;;;;6.43;2.70;;;;;;;;;;4979969;28;20445;-78
2022/04/08 06:47:29;;;;;;;6.03;2.50;;;;;;;;;;4983263;28;20471;-80
2022/04/08 06:49:55;;;;;;;5.30;2.80;;;;;;;;;;4982923;28;20500;-81
2022/04/08 06:52:23;;;;;;;7.55;2.80;;;;;;;;;;4981712;28;20414;-81
2022/04/08 06:54:49;;;;;;;9.38;2.50;;;;;;;;;;4980411;28;20430;-80
2022/04/08 06:57:15;;;;;;;7.53;2.65;;;;;;;;;;4978888;28;20412;-81
2022/04/08 06:59:42;;;;;;;6.70;2.30;;;;;;;;;;4979878;28;20430;-80
2022/04/08 07:02:09;;;;;;;9.10;2.80;;;;;;;;;;4980843;28;20578;-81
2022/04/08 07:04:35;;;;;;;7.03;2.47;;;;;;;;;;4979873;28;20450;-80
2022/04/08 07:07:04;;;;;;;5.50;2.40;;;;;;;;;;4980013;28;21046;-80
2022/04/08 07:09:32;;;;;;;6.85;2.20;;;;;;;;;;4979511;28;20439;-80
2022/04/08 07:11:58;;;;;;;5.85;2.20;;;;;;;;;;4983445;28;20502;-80
2022/04/08 07:14:25;;;;;;;4.45;2.10;;;;;;;;;;4986162;28;20422;-81
2022/04/08 07:16:52;;;;;;;4.80;2.58;;;;;;;;;;4983458;28;20436;-81
2022/04/08 07:19:18;;;;;;;4.80;2.60;;;;;;;;;;4982683;28;20438;-80
2022/04/08 07:21:44;;;;;;;5.30;2.40;;;;;;;;;;4982560;28;20913;-79
2022/04/08 07:24:10;;;;;;;3.35;1.90;;;;;;;;;;4984211;28;20925;-80
2022/04/08 07:26:38;;;;;;;4.60;2.33;;;;;;;;;;4985280;28;20486;-80
2022/04/08 07:29:04;;;;;;;5.70;2.10;;;;;;;;;;4982379;28;20517;-81
2022/04/08 07:31:31;;;;;;;7.00;2.45;;;;;;;;;;4985029;28;20490;-80
2022/04/08 07:33:57;;;;;;;5.63;2.10;;;;;;;;;;4980232;28;20440;-80
2022/04/08 07:36:23;;;;;;;5.05;2.20;;;;;;;;;;4985622;28;20861;-81
2022/04/08 07:38:49;;;;;;;5.63;1.80;;;;;;;;;;4983339;28;20435;-80
2022/04/08 07:41:16;;;;;;;3.78;2.10;;;;;;;;;;4986351;28;20478;-80
2022/04/08 07:43:43;;;;;;;6.32;2.47;;;;;;;;;;4984812;28;20454;-80
2022/04/08 07:46:09;;;;;;;9.40;2.80;;;;;;;;;;4987667;28;20432;-80
2022/04/08 07:48:36;;;;;;;7.65;2.05;;;;;;;;;;4986547;28;20493;-79
2022/04/08 07:51:02;;;;;;;4.63;2.30;;;;;;;;;;4988124;28;20433;-80
2022/04/08 07:53:28;;;;;;;6.75;2.50;;;;;;;;;;4985006;28;20497;-80
2022/04/08 07:55:55;;;;;;;4.57;2.10;;;;;;;;;;4987623;28;20428;-80
2022/04/08 07:58:21;;;;;;;2.83;1.98;;;;;;;;;;4987577;28;20441;-80
2022/04/08 08:00:51;;;;;;;4.60;2.00;;;;;;;;;;4986157;28;20438;-80
2022/04/08 08:03:19;;;;;;;7.47;2.67;;;;;;;;;;4985482;28;20431;-80
2022/04/08 08:05:45;;;;;;;5.38;2.10;;;;;;;;;;4986589;28;20859;-78
2022/04/08 08:08:11;;;;;;;6.93;2.10;;;;;;;;;;4984163;28;20433;-80
2022/04/08 08:10:39;;;;;;;2.95;1.88;;;;;;;;;;4986888;28;20490;-81
2022/04/08 08:13:05;;;;;;;7.35;2.30;;;;;;;;;;4985525;28;20441;-81
2022/04/08 08:15:32;;;;;;;4.70;2.40;;;;;;;;;;4985352;28;20423;-80
2022/04/08 08:18:00;;;;;;;5.95;2.20;;;;;;;;;;4985784;28;20427;-80
2022/04/08 08:20:27;;;;;;;6.28;2.35;;;;;;;;;;4984206;28;20938;-79
2022/04/08 08:22:53;;;;;;;8.90;2.00;;;;;;;;;;4984224;28;20504;-81
2022/04/08 08:25:20;;;;;;;5.82;2.20;;;;;;;;;;4982740;28;20501;-80
2022/04/08 08:27:48;;;;;;;6.80;2.20;;;;;;;;;;4983642;28;20478;-79
2022/04/08 08:30:15;;;;;;;3.60;1.90;;;;;;;;;;4984667;28;20438;-80
2022/04/08 08:32:43;;;;;;;4.45;1.70;;;;;;;;;;4983853;28;20759;-80
2022/04/08 08:35:12;;;;;;;3.50;2.00;;;;;;;;;;4983768;28;20500;-80
2022/04/08 08:37:39;;;;;;;5.18;2.30;;;;;;;;;;4982664;28;20488;-80
2022/04/08 08:40:06;;;;;;;5.63;2.30;;;;;;;;;;4983753;28;20533;-80
2022/04/08 08:42:33;;;;;;;4.70;1.70;;;;;;;;;;4983006;28;20923;-79
2022/04/08 08:44:59;;;;;;;6.47;2.30;;;;;;;;;;4982949;28;20442;-80
2022/04/08 08:47:27;;;;;;;4.45;1.70;;;;;;;;;;4985110;28;20421;-79
2022/04/08 08:49:53;;;;;;;4.07;2.00;;;;;;;;;;4983283;28;20434;-80
2022/04/08 08:52:21;;;;;;;8.40;2.17;;;;;;;;;;4983808;28;20450;-80
2022/04/08 08:54:47;;;;;;;10.60;2.53;;;;;;;;;;4982512;28;20440;-80
2022/04/08 08:57:15;;;;;;;8.82;2.47;;;;;;;;;;4982925;28;20774;-80
2022/04/08 08:59:42;;;;;;;4.82;2.63;;;;;;;;;;4979554;28;20496;-80
2022/04/08 09:02:08;;;;;;;10.02;2.78;;;;;;;;;;4982976;28;20506;-80
2022/04/08 09:04:39;;;;;;;7.57;2.10;;;;;;;;;;4982264;28;20438;-79
2022/04/08 09:07:07;;;;;;;3.70;2.15;;;;;;;;;;4981609;28;20434;-80
2022/04/08 09:09:34;;;;;;;3.75;2.38;;;;;;;;;;4981154;28;20430;-79
2022/04/08 09:12:09;;;;;;;6.38;2.30;;;;;;;;;;4980151;28;20930;-80
2022/04/08 09:14:35;;;;;;;7.68;2.42;;;;;;;;;;4980123;28;20441;-80
2022/04/08 09:17:03;;;;;;;8.07;2.35;;;;;;;;;;4980160;28;20472;-80
2022/04/08 09:19:32;;;;;;;4.90;2.20;;;;;;;;;;4981257;28;21029;-79
2022/04/08 09:21:58;;;;;;;5.57;2.30;;;;;;;;;;4980711;28;20437;-81
2022/04/08 09:24:24;;;;;;;5.60;2.35;;;;;;;;;;4981753;28;20432;-80
2022/04/08 09:26:53;;;;;;;4.87;1.63;;;;;;;;;;4981491;28;20435;-82
2022/04/08 09:29:19;;;;;;;6.80;2.33;;;;;;;;;;4980822;28;20805;-81
2022/04/08 09:31:48;;;;;;;7.97;2.60;;;;;;;;;;4982180;28;20504;-79
2022/04/08 09:34:16;;;;;;;5.50;2.40;;;;;;;;;;4981667;28;20465;-79
2022/04/08 09:36:42;;;;;;;7.25;3.33;;;;;;;;;;4983447;28;20430;-80
2022/04/08 09:39:10;;;;;;;6.82;3.30;;;;;;;;;;4980637;28;21312;-80
2022/04/08 09:41:37;;;;;;;5.45;2.80;;;;;;;;;;4981843;28;20465;-80
2022/04/08 09:44:05;;;;;;;8.50;2.50;;;;;;;;;;4978630;28;20937;-81
2022/04/08 09:46:31;;;;;;;5.78;2.60;;;;;;;;;;4985098;28;20516;-83
2022/04/08 09:48:58;;;;;;;5.73;2.20;;;;;;;;;;4990633;28;20457;-81
2022/04/08 09:51:24;;;;;;;7.40;3.22;;;;;;;;;;4994456;28;20438;-81
2022/04/08 09:53:53;;;;;;;5.43;2.40;;;;;;;;;;4986251;28;20501;-79
2022/04/08 09:56:21;;;;;;;7.68;2.70;;;;;;;;;;4986606;28;20473;-79
2022/04/08 09:58:51;;;;;;;3.30;2.30;;;;;;;;;;4984019;28;20469;-78
2022/04/08 10:01:20;;;;;;;4.22;2.20;;;;;;;;;;4983168;28;20459;-79
2022/04/08 10:03:47;;;;;;;3.35;1.98;;;;;;;;;;4982592;28;20433;-79
2022/04/08 10:06:13;;;;;;;4.00;1.90;;;;;;;;;;4987475;28;20476;-80
2022/04/08 10:08:39;;;;;;;3.50;1.90;;;;;;;;;;4984278;28;20432;-79
2022/04/08 10:11:09;;;;;;;5.03;2.05;;;;;;;;;;4987168;28;20420;-78
2022/04/08 10:13:43;;;;;;;5.53;2.20;;;;;;;;;;4986765;28;20426;-79
2022/04/08 10:16:13;;;;;;;5.38;2.22;;;;;;;;;;4988517;28;20957;-79
2022/04/08 10:18:41;;;;;;;11.57;6.15;;;;;;;;;;4986370;28;20422;-79
2022/04/08 10:21:10;;;;;;;10.88;5.40;;;;;;;;;;4986748;28;20430;-77
2022/04/08 10:23:37;;;;;;;4.82;2.75;;;;;;;;;;4984380;28;20848;-79
2022/04/08 10:26:05;;;;;;;3.73;2.20;;;;;;;;;;4987025;28;20438;-79
2022/04/08 10:28:35;;;;;;;3.85;1.80;;;;;;;;;;4983175;28;21159;-79
2022/04/08 10:31:01;;;;;;;4.00;1.42;;;;;;;;;;4989462;28;20440;-80
2022/04/08 10:33:29;;;;;;;3.00;1.40;;;;;;;;;;4987466;28;20517;-79
2022/04/08 10:36:00;;;;;;;4.00;1.70;;;;;;;;;;4986508;28;20430;-76
2022/04/08 10:38:34;;;;;;;3.25;1.40;;;;;;;;;;4986488;28;20481;-79
2022/04/08 10:41:01;;;;;;;3.90;1.60;;;;;;;;;;4986135;28;21053;-80
2022/04/08 10:43:27;;;;;;;1.83;1.10;;;;;;;;;;4985155;28;20439;-78
2022/04/08 10:45:56;;;;;;;4.20;1.23;;;;;;;;;;4986300;28;20446;-78
2022/04/08 10:48:22;;;;;;;3.22;1.40;;;;;;;;;;4982071;28;21006;-78
2022/04/08 10:50:48;;;;;;;5.47;1.70;;;;;;;;;;4985534;28;20480;-79
2022/04/08 10:53:19;;;;;;;2.95;1.30;;;;;;;;;;4984689;28;20428;-78
2022/04/08 10:55:47;;;;;;;3.00;1.60;;;;;;;;;;4984584;28;20423;-78
2022/04/08 10:58:15;;;;;;;2.30;1.65;;;;;;;;;;4983596;28;20489;-79
2022/04/08 11:00:41;;;;;;;4.20;1.90;;;;;;;;;;4985108;28;20514;-79
2022/04/08 11:03:10;;;;;;;3.80;1.60;;;;;;;;;;4984903;28;20423;-78
2022/04/08 11:05:36;;;;;;;2.30;1.60;;;;;;;;;;4983783;28;21466;-78
2022/04/08 11:08:03;;;;;;;3.83;1.88;;;;;;;;;;4983814;28;20420;-78
2022/04/08 11:10:31;;;;;;;4.63;2.10;;;;;;;;;;4983965;28;20763;-78
2022/04/08 11:12:59;;;;;;;2.45;1.90;;;;;;;;;;4985512;28;20438;-77
2022/04/08 11:15:28;;;;;;;5.25;2.10;;;;;;;;;;4983549;28;20465;-78
2022/04/08 11:17:54;;;;;;;4.85;2.13;;;;;;;;;;4980793;28;20476;-77
2022/04/08 11:20:21;;;;;;;4.47;1.85;;;;;;;;;;4984674;28;20433;-79
2022/04/08 11:22:50;;;;;;;2.83;2.25;;;;;;;;;;4991766;28;20916;-79
2022/04/08 11:25:19;;;;;;;4.10;2.30;;;;;;;;;;4991674;28;20451;-78
2022/04/08 11:27:51;;;;;;;3.78;2.10;;;;;;;;;;4988517;28;20490;-78
2022/04/08 11:30:18;;;;;;;3.77;2.30;;;;;;;;;;4987846;28;20466;-78
2022/04/08 11:32:45;;;;;;;3.35;2.28;;;;;;;;;;4989833;28;20441;-79
2022/04/08 11:35:11;;;;;;;3.85;2.40;;;;;;;;;;4990973;28;20442;-79
2022/04/08 11:37:38;;;;;;;3.28;2.53;;;;;;;;;;4989333;28;20961;-79
2022/04/08 11:40:04;;;;;;;4.80;2.10;;;;;;;;;;4990946;28;20848;-79
2022/04/08 11:42:31;;;;;;;2.70;1.70;;;;;;;;;;4988441;28;20568;-80
2022/04/08 11:44:58;;;;;;;3.40;1.70;;;;;;;;;;4990102;28;20468;-79
2022/04/08 11:47:31;;;;;;;5.47;2.55;;;;;;;;;;4990976;28;20414;-79
2022/04/08 11:50:01;;;;;;;4.32;1.45;;;;;;;;;;4991196;28;20442;-80
2022/04/08 11:52:28;;;;;;;2.63;1.33;;;;;;;;;;4993510;28;20478;-79
2022/04/08 11:54:56;;;;;;;3.17;1.20;;;;;;;;;;4992454;28;20440;-80
2022/04/08 11:57:26;;;;;;;2.97;1.48;;;;;;;;;;4990170;28;20439;-78
2022/04/08 11:59:52;;;;;;;3.20;2.20;;;;;;;;;;4988783;28;20434;-79
2022/04/08 12:02:21;;;;;;;3.15;1.30;;;;;;;;;;4992305;28;20407;-79
2022/04/08 12:04:50;;;;;;;2.80;1.30;;;;;;;;;;4992354;28;20443;-80
2022/04/08 12:07:28;;;;;;;2.00;1.30;;;;;;;;;;4990501;28;20409;-79
2022/04/08 12:09:54;;;;;;;2.70;1.40;;;;;;;;;;4991237;28;20424;-79
2022/04/08 12:12:24;;;;;;;1.80;1.60;;;;;;;;;;4994530;28;21182;-78
2022/04/08 12:14:50;;;;;;;4.55;1.60;;;;;;;;;;5012228;28;20430;-79
2022/04/08 12:17:16;;;;;;;2.00;1.40;;;;;;;;;;5011314;28;20438;-76
2022/04/08 12:19:47;;;;;;;2.35;1.35;;;;;;;;;;5011614;28;20440;-79
2022/04/08 12:22:15;;;;;;;3.15;1.40;;;;;;;;;;5017481;28;20455;-78
2022/04/08 12:24:42;;;;;;;2.80;1.40;;;;;;;;;;5006915;28;20490;-78
2022/04/08 12:27:11;;;;;;;6.35;1.80;;;;;;;;;;5007257;28;20451;-79
2022/04/08 12:29:39;;;;;;;2.77;1.50;;;;;;;;;;5008116;28;20491;-79
2022/04/08 12:32:12;;;;;;;3.60;1.60;;;;;;;;;;5004183;28;20428;-79
2022/04/08 12:34:38;;;;;;;5.95;1.80;;;;;;;;;;5006360;28;20491;-80
2022/04/08 12:37:06;;;;;;;2.05;1.40;;;;;;;;;;5007129;28;20440;-79
2022/04/08 12:39:32;;;;;;;4.57;2.58;;;;;;;;;;5007017;28;20483;-79
2022/04/08 12:41:59;;;;;;;3.97;1.88;;;;;;;;;;5004741;28;21036;-79
2022/04/08 12:44:25;;;;;;;6.57;4.43;;;;;;;;;;5005412;28;20510;-79
2022/04/08 12:46:54;;;;;;;6.07;3.50;;;;;;;;;;5006252;28;20459;-79
2022/04/08 12:49:20;;;;;;;9.05;4.30;;;;;;;;;;5005814;28;20440;-80
2022/04/08 12:51:46;;;;;;;7.22;4.18;;;;;;;;;;5008367;28;20471;-80
2022/04/08 12:54:14;;;;;;;6.85;3.90;;;;;;;;;;5007158;28;20421;-79
2022/04/08 12:56:41;;;;;;;7.72;3.67;;;;;;;;;;5007344;28;20433;-79
2022/04/08 12:59:07;;;;;;;5.20;2.60;;;;;;;;;;5003205;28;20436;-79
2022/04/08 13:01:34;;;;;;;4.07;2.13;;;;;;;;;;5006724;28;20432;-79
2022/04/08 13:04:00;;;;;;;2.40;2.10;;;;;;;;;;5005370;28;20451;-79
2022/04/08 13:06:27;;;;;;;6.30;2.80;;;;;;;;;;5005569;28;20433;-79
2022/04/08 13:08:53;;;;;;;3.60;2.20;;;;;;;;;;5004773;28;20424;-80
2022/04/08 13:11:21;;;;;;;4.75;1.88;;;;;;;;;;5006131;28;20442;-78
2022/04/08 13:13:48;;;;;;;2.05;1.50;;;;;;;;;;5004927;28;20547;-78
2022/04/08 13:16:14;;;;;;;3.47;1.70;;;;;;;;;;5004423;28;20461;-79
2022/04/08 13:18:40;;;;;;;4.40;1.90;;;;;;;;;;5005128;28;20459;-79
2022/04/08 13:21:06;;;;;;;1.77;1.67;;;;;;;;;;5003364;28;20436;-79
2022/04/08 13:23:33;;;;;;;4.68;1.70;;;;;;;;;;5003439;28;20459;-81
2022/04/08 13:26:00;;;;;;;2.75;1.60;;;;;;;;;;5005033;28;20440;-79
2022/04/08 13:28:27;;;;;;;2.72;1.55;;;;;;;;;;5003913;28;20487;-77
2022/04/08 13:30:53;;;;;;;2.58;1.70;;;;;;;;;;5004472;28;20434;-79
2022/04/08 13:33:20;;;;;;;4.43;1.70;;;;;;;;;;5006625;28;20452;-79
2022/04/08 13:35:48;;;;;;;5.00;1.90;;;;;;;;;;5006279;28;20440;-79
2022/04/08 13:38:15;;;;;;;5.03;2.25;;;;;;;;;;5004180;28;20437;-79
2022/04/08 13:40:41;;;;;;;3.63;1.63;;;;;;;;;;5003704;28;20432;-78
2022/04/08 13:43:07;;;;;;;4.22;1.67;;;;;;;;;;5003916;28;20434;-80
2022/04/08 13:45:35;;;;;;;5.77;2.03;;;;;;;;;;5003199;28;20481;-79
2022/04/08 13:48:01;;;;;;;3.97;1.40;;;;;;;;;;5003541;28;20429;-80
2022/04/08 13:50:27;;;;;;;3.30;1.70;;;;;;;;;;5005344;28;20496;-80
2022/04/08 13:52:54;;;;;;;8.10;2.10;;;;;;;;;;5004344;28;20431;-80
2022/04/08 13:55:20;;;;;;;3.90;1.60;;;;;;;;;;5005047;28;20512;-78
2022/04/08 13:57:47;;;;;;;5.30;2.50;;;;;;;;;;5002806;28;20489;-79
2022/04/08 14:00:13;;;;;;;6.47;3.00;;;;;;;;;;5001940;28;20478;-77
2022/04/08 14:02:41;;;;;;;5.45;2.20;;;;;;;;;;5004877;28;21557;-79
2022/04/08 14:05:07;;;;;;;6.60;2.80;;;;;;;;;;5005993;28;20421;-79
2022/04/08 14:07:34;;;;;;;5.15;2.00;;;;;;;;;;5007952;28;20452;-80
2022/04/08 14:10:00;;;;;;;7.07;3.38;;;;;;;;;;5005017;28;20429;-79
2022/04/08 14:12:26;;;;;;;7.95;3.85;;;;;;;;;;5003269;28;20425;-80
2022/04/08 14:14:53;;;;;;;5.65;2.75;;;;;;;;;;5005310;28;20438;-80
2022/04/08 14:17:19;;;;;;;3.58;1.80;;;;;;;;;;5007505;28;20467;-79
2022/04/08 14:19:46;;;;;;;4.28;2.15;;;;;;;;;;5008011;28;20442;-80
2022/04/08 14:22:13;;;;;;;4.30;2.00;;;;;;;;;;5008683;28;20935;-80
2022/04/08 14:24:39;;;;;;;5.57;2.40;;;;;;;;;;5009620;28;20438;-80
2022/04/08 14:27:05;;;;;;;5.65;2.30;;;;;;;;;;5004550;28;20441;-79
2022/04/08 14:29:32;;;;;;;6.30;2.50;;;;;;;;;;5009386;28;21869;-80
2022/04/08 14:31:58;;;;;;;4.47;2.30;;;;;;;;;;5009537;28;20843;-80
2022/04/08 14:34:24;;;;;;;5.10;2.60;;;;;;;;;;5008878;28;20444;-80
2022/04/08 14:36:52;;;;;;;5.55;1.92;;;;;;;;;;5010209;28;20499;-79
2022/04/08 14:39:18;;;;;;;5.70;2.60;;;;;;;;;;5007921;28;20455;-80